Time;durP1;ratioP1;P1;durP2;ratioP2;P2;SDS_P1;SDS_P2;PMS_P1;PMS_P2;Temp;Humidity;BMP_temperature;BMP_pressure;BME280_temperature;BME280_humidity;BME280_pressure;Samples;Min_cycle;Max_cycle;Signal;HPM_P1;HPM_P2
2023/01/06 00:00:04;;;;;;;28.87;21.60;;;11.20;86.80;;;;;;10862626;32;20015;-73
2023/01/06 00:06:10;;;;;;;28.60;18.42;;;11.00;87.20;;;;;;10849190;32;20058;-73
2023/01/06 00:12:37;;;;;;;43.38;28.87;;;11.00;87.10;;;;;;10862469;32;20038;-73
2023/01/06 00:18:40;;;;;;;27.15;19.98;;;11.00;87.20;;;;;;10849695;32;20070;-73
2023/01/06 00:25:04;;;;;;;27.27;18.83;;;10.90;87.30;;;;;;10955282;27;20076;-73
2023/01/06 00:31:12;;;;;;;26.80;19.70;;;11.00;87.40;;;;;;10979725;32;20019;-73
2023/01/06 00:37:15;;;;;;;22.80;16.67;;;11.00;87.50;;;;;;10979556;32;20431;-73
2023/01/06 00:43:18;;;;;;;19.45;15.35;;;11.10;87.20;;;;;;10979190;32;20046;-73
2023/01/06 00:49:20;;;;;;;20.58;15.50;;;11.20;87.10;;;;;;10978810;32;20011;-73
2023/01/06 00:55:22;;;;;;;20.33;15.40;;;11.00;87.20;;;;;;10979231;32;20015;-73
2023/01/06 01:01:44;;;;;;;22.40;16.20;;;11.00;87.40;;;;;;10979542;32;20037;-73
2023/01/06 01:07:47;;;;;;;24.50;18.85;;;11.20;87.30;;;;;;10978993;32;20023;-73
2023/01/06 01:13:49;;;;;;;30.77;21.85;;;11.20;87.10;;;;;;10978855;32;20033;-73
2023/01/06 01:19:54;;;;;;;22.50;16.75;;;11.30;87.00;;;;;;10978750;32;20058;-73
2023/01/06 01:25:56;;;;;;;18.75;14.05;;;11.50;86.80;;;;;;10977650;32;20404;-73
2023/01/06 01:31:58;;;;;;;18.00;13.25;;;11.50;86.60;;;;;;10978712;32;20325;-73
2023/01/06 01:38:01;;;;;;;25.12;16.98;;;11.30;86.80;;;;;;10978590;32;20403;-73
2023/01/06 01:44:40;;;;;;;18.10;13.55;;;11.30;87.00;;;;;;10977429;32;20039;-73
2023/01/06 01:50:45;;;;;;;;;;;11.30;86.90;;;;;;10975926;32;20061;-73
2023/01/06 01:56:53;;;;;;;21.27;17.10;;;11.10;87.10;;;;;;10978277;32;19926;-73
2023/01/06 02:02:55;;;;;;;21.08;14.95;;;11.10;87.40;;;;;;10984408;32;20014;-73
2023/01/06 02:09:25;;;;;;;25.10;17.70;;;10.90;87.40;;;;;;10984720;32;20026;-73
2023/01/06 02:15:31;;;;;;;24.10;18.52;;;10.80;87.50;;;;;;10984505;32;20041;-73
2023/01/06 02:21:55;;;;;;;25.08;16.40;;;10.80;87.50;;;;;;10984299;32;20408;-73
2023/01/06 02:28:19;;;;;;;23.48;17.00;;;10.90;87.30;;;;;;10983987;32;20015;-73
2023/01/06 02:34:41;;;;;;;23.42;19.02;;;10.80;87.50;;;;;;10983887;32;20039;-73
2023/01/06 02:41:27;;;;;;;33.47;25.42;;;10.90;87.50;;;;;;10983736;32;20041;-73
2023/01/06 02:47:38;;;;;;;21.98;15.45;;;10.90;87.30;;;;;;10981999;32;20068;-73
2023/01/06 02:53:51;;;;;;;24.10;16.45;;;10.80;87.40;;;;;;10983236;32;20348;-73
2023/01/06 03:00:22;;;;;;;19.50;13.85;;;10.80;87.70;;;;;;10984664;32;20038;-73
2023/01/06 03:06:29;;;;;;;33.40;24.83;;;10.70;87.70;;;;;;10981190;32;20026;-73
2023/01/06 03:12:47;;;;;;;26.20;21.65;;;10.80;88.00;;;;;;10982064;32;20019;-73
2023/01/06 03:18:51;;;;;;;22.58;14.40;;;11.10;88.00;;;;;;10982313;32;20015;-74
2023/01/06 03:24:53;;;;;;;14.23;10.82;;;11.10;87.60;;;;;;10981823;32;20042;-73
2023/01/06 03:31:17;;;;;;;17.33;13.57;;;11.00;87.80;;;;;;10981718;32;20042;-73
2023/01/06 03:37:22;;;;;;;20.98;14.02;;;10.90;87.50;;;;;;10980438;32;20027;-73
2023/01/06 03:43:48;;;;;;;14.02;12.18;;;10.70;87.80;;;;;;10981298;32;20015;-73
2023/01/06 03:50:05;;;;;;;19.42;14.90;;;10.80;87.70;;;;;;10828267;32;20452;-73
2023/01/06 03:56:21;;;;;;;24.37;17.48;;;10.70;87.80;;;;;;10827132;32;20151;-73
2023/01/06 04:02:24;;;;;;;23.27;15.88;;;10.70;87.70;;;;;;10826803;32;20020;-73
2023/01/06 04:08:28;;;;;;;27.05;21.33;;;10.80;87.50;;;;;;10815517;32;20390;-73
2023/01/06 04:14:31;;;;;;;18.02;14.05;;;10.90;87.20;;;;;;10827424;32;20028;-73
2023/01/06 04:20:35;;;;;;;18.37;14.60;;;10.90;87.10;;;;;;10802053;32;20031;-73
2023/01/06 04:26:38;;;;;;;17.62;13.85;;;10.70;87.20;;;;;;10933258;32;20022;-73
2023/01/06 04:32:41;;;;;;;18.87;12.52;;;10.70;87.10;;;;;;10979541;32;20015;-73
2023/01/06 04:39:06;;;;;;;19.15;13.70;;;10.70;87.00;;;;;;10980234;32;20046;-74
2023/01/06 04:45:09;;;;;;;15.60;11.70;;;10.70;86.80;;;;;;10977181;32;20037;-73
2023/01/06 04:51:11;;;;;;;21.05;14.98;;;10.40;87.10;;;;;;10979089;32;20387;-73
2023/01/06 04:57:13;;;;;;;15.60;12.07;;;10.60;87.20;;;;;;10979404;32;20015;-73
2023/01/06 05:03:23;;;;;;;18.05;12.15;;;10.50;86.90;;;;;;10979186;32;20015;-73
2023/01/06 05:09:25;;;;;;;17.85;13.45;;;10.40;87.10;;;;;;10978948;32;20019;-73
2023/01/06 05:15:27;;;;;;;24.60;18.67;;;10.30;87.20;;;;;;10978895;32;20014;-73
2023/01/06 05:21:30;;;;;;;16.48;13.65;;;10.20;87.50;;;;;;10978774;32;20050;-73
2023/01/06 05:27:31;;;;;;;19.42;15.55;;;10.50;87.50;;;;;;10978691;32;20051;-73
2023/01/06 05:33:33;;;;;;;22.52;15.80;;;10.60;87.20;;;;;;10981280;32;20014;-73
2023/01/06 05:39:35;;;;;;;22.50;16.27;;;10.50;87.10;;;;;;10985926;32;20095;-73
2023/01/06 05:45:39;;;;;;;24.98;18.52;;;10.50;87.30;;;;;;10985624;32;20015;-73
2023/01/06 05:51:51;;;;;;;14.73;10.50;;;10.30;87.40;;;;;;10984950;32;20031;-73
2023/01/06 05:57:58;;;;;;;25.75;18.00;;;10.50;87.40;;;;;;10985171;32;20344;-73
2023/01/06 06:04:53;;;;;;;22.27;17.62;;;10.60;87.50;;;;;;10982090;32;20023;-73
2023/01/06 06:10:56;;;;;;;26.08;17.42;;;10.60;87.30;;;;;;10984761;32;20430;-73
2023/01/06 06:16:58;;;;;;;18.67;13.70;;;10.60;87.30;;;;;;10983499;32;20031;-73
2023/01/06 06:23:00;;;;;;;23.05;17.52;;;10.60;87.40;;;;;;10984221;32;20018;-73
2023/01/06 06:29:05;;;;;;;19.12;13.27;;;10.40;87.60;;;;;;10984021;32;20057;-73
2023/01/06 06:35:07;;;;;;;15.43;11.93;;;10.60;87.50;;;;;;10983860;32;20182;-73
2023/01/06 06:41:09;;;;;;;22.77;16.98;;;10.30;87.50;;;;;;10983645;32;20010;-73
2023/01/06 06:47:13;;;;;;;21.62;15.50;;;10.40;88.00;;;;;;10982758;32;20015;-73
2023/01/06 06:53:15;;;;;;;18.73;14.68;;;10.40;87.70;;;;;;10983197;32;20018;-73
2023/01/06 06:59:17;;;;;;;20.10;15.93;;;10.30;87.80;;;;;;10982914;32;20019;-73
2023/01/06 07:05:19;;;;;;;21.10;15.70;;;10.40;87.90;;;;;;10982802;32;20333;-73
2023/01/06 07:11:21;;;;;;;17.77;13.40;;;10.50;87.90;;;;;;10982318;32;20051;-73
2023/01/06 07:17:29;;;;;;;25.25;19.08;;;10.40;87.90;;;;;;10982061;32;20014;-74
2023/01/06 07:23:32;;;;;;;28.90;18.85;;;10.50;87.80;;;;;;10982137;32;20014;-73
2023/01/06 07:29:34;;;;;;;21.42;15.15;;;10.50;87.80;;;;;;10981780;32;20030;-73
2023/01/06 07:35:36;;;;;;;18.52;13.80;;;10.40;87.70;;;;;;10980872;32;20014;-73
2023/01/06 07:41:38;;;;;;;18.40;11.70;;;10.20;87.90;;;;;;10980024;32;20037;-73
2023/01/06 07:47:42;;;;;;;32.78;21.00;;;10.20;87.80;;;;;;10980562;32;20050;-73
2023/01/06 07:53:44;;;;;;;19.50;13.25;;;10.20;88.00;;;;;;10980717;32;20010;-73
2023/01/06 07:59:47;;;;;;;29.02;23.48;;;10.10;87.80;;;;;;10978986;32;20035;-73
2023/01/06 08:05:49;;;;;;;20.55;16.25;;;9.90;87.90;;;;;;10979012;32;20058;-73
2023/01/06 08:11:51;;;;;;;19.48;14.85;;;9.80;88.00;;;;;;10980086;32;20018;-73
2023/01/06 08:17:54;;;;;;;21.10;14.10;;;10.20;88.30;;;;;;10980025;32;20400;-73
2023/01/06 08:23:56;;;;;;;19.35;15.60;;;10.30;88.10;;;;;;10437635;27;11995137;-73
2023/01/06 08:29:58;;;;;;;23.05;16.90;;;10.50;88.20;;;;;;10712733;33;20306;-73
2023/01/06 08:36:02;;;;;;;25.15;16.98;;;10.70;88.20;;;;;;10711659;33;20029;-73
2023/01/06 08:42:04;;;;;;;27.55;19.15;;;10.70;88.40;;;;;;10709213;33;20048;-73
2023/01/06 08:48:06;;;;;;;19.05;15.52;;;10.80;88.30;;;;;;10756381;33;20024;-73
2023/01/06 08:54:09;;;;;;;26.33;17.37;;;10.90;88.20;;;;;;10810194;33;20020;-73
2023/01/06 09:00:11;;;;;;;14.98;11.02;;;11.00;88.20;;;;;;10810822;33;20402;-73
2023/01/06 09:06:14;;;;;;;16.23;12.05;;;11.10;88.20;;;;;;10823193;32;20016;-74
2023/01/06 09:12:16;;;;;;;24.98;17.45;;;10.90;88.10;;;;;;10829702;33;20016;-73
2023/01/06 09:18:19;;;;;;;19.55;14.10;;;10.80;88.30;;;;;;10827320;33;20058;-74
2023/01/06 09:24:21;;;;;;;23.87;16.08;;;10.90;88.40;;;;;;10829470;33;20028;-74
2023/01/06 09:30:24;;;;;;;21.02;16.92;;;10.90;88.00;;;;;;10815869;33;20067;-73
2023/01/06 09:36:26;;;;;;;17.08;11.02;;;10.70;88.30;;;;;;10829699;33;20051;-73
2023/01/06 09:43:01;;;;;;;20.05;14.73;;;10.60;88.20;;;;;;10829519;33;20047;-74
2023/01/06 09:49:12;;;;;;;23.55;14.27;;;10.50;88.30;;;;;;10829246;33;20028;-74
2023/01/06 09:55:29;;;;;;;22.02;15.85;;;10.60;88.40;;;;;;10812168;33;20035;-73
2023/01/06 10:01:36;;;;;;;21.33;13.55;;;10.60;88.20;;;;;;10828920;33;20028;-73
2023/01/06 10:08:00;;;;;;;23.55;16.35;;;10.60;88.50;;;;;;10828314;33;20066;-74
2023/01/06 10:14:15;;;;;;;21.20;14.40;;;10.60;88.40;;;;;;10801927;33;20160;-74
2023/01/06 10:20:38;;;;;;;15.93;11.43;;;10.70;88.30;;;;;;10791191;32;20043;-73
2023/01/06 10:26:45;;;;;;;13.88;9.30;;;10.70;88.10;;;;;;10791609;33;20433;-73
2023/01/06 10:32:49;;;;;;;17.10;11.75;;;10.70;88.30;;;;;;10791409;33;20047;-73
2023/01/06 10:38:53;;;;;;;25.48;16.90;;;10.70;88.20;;;;;;10791189;33;20020;-73
2023/01/06 10:44:55;;;;;;;20.25;13.45;;;10.80;88.30;;;;;;10791265;33;20043;-73
2023/01/06 10:51:16;;;;;;;19.20;12.98;;;10.90;88.30;;;;;;10797945;33;20063;-73
2023/01/06 10:57:37;;;;;;;17.00;9.30;;;10.90;88.10;;;;;;10790261;33;20013;-73
2023/01/06 11:03:41;;;;;;;24.00;17.30;;;11.00;88.40;;;;;;10776969;33;20338;-74
2023/01/06 11:09:44;;;;;;;21.40;14.60;;;11.00;88.40;;;;;;10786346;33;20042;-73
2023/01/06 11:15:46;;;;;;;26.15;19.40;;;11.10;88.40;;;;;;10791763;33;20040;-73
2023/01/06 11:21:48;;;;;;;20.67;14.85;;;11.20;88.50;;;;;;10774732;33;20078;-73
2023/01/06 11:28:19;;;;;;;23.80;15.18;;;11.40;88.40;;;;;;10789920;33;20024;-73
2023/01/06 11:34:25;;;;;;;22.35;14.38;;;11.40;88.20;;;;;;10790529;33;20030;-73
2023/01/06 11:40:32;;;;;;;18.87;13.45;;;11.40;88.20;;;;;;10786249;33;20055;-74
2023/01/06 11:46:38;;;;;;;20.37;15.05;;;11.50;88.30;;;;;;10785312;33;20039;-73
2023/01/06 11:52:40;;;;;;;22.33;14.43;;;11.70;88.60;;;;;;10785728;33;20335;-74
2023/01/06 11:59:17;;;;;;;20.77;14.68;;;11.80;88.50;;;;;;10788807;33;20055;-73
2023/01/06 12:05:29;;;;;;;19.98;14.50;;;11.80;88.70;;;;;;10771583;33;20036;-73
2023/01/06 12:12:08;;;;;;;24.37;17.33;;;11.90;88.70;;;;;;10788505;33;20024;-73
2023/01/06 12:18:17;;;;;;;23.70;15.18;;;11.90;88.80;;;;;;10786963;32;20059;-73
2023/01/06 12:24:20;;;;;;;21.27;14.13;;;11.90;88.90;;;;;;10789477;32;20378;-73
2023/01/06 12:30:46;;;;;;;22.60;16.85;;;12.00;89.10;;;;;;10788961;32;20070;-74
2023/01/06 12:36:59;;;;;;;18.23;12.77;;;12.00;89.10;;;;;;10788727;32;20147;-73
2023/01/06 12:43:11;;;;;;;15.57;11.30;;;11.90;89.00;;;;;;10787978;33;20099;-73
2023/01/06 12:49:30;;;;;;;24.73;17.70;;;12.00;89.10;;;;;;10786505;33;20060;-74
2023/01/06 12:55:55;;;;;;;19.80;11.35;;;12.10;89.20;;;;;;10788591;33;20040;-74
2023/01/06 13:02:20;;;;;;;13.90;8.20;;;12.10;89.10;;;;;;10761622;33;20036;-73
2023/01/06 13:09:11;;;;;;;18.52;10.77;;;12.10;89.10;;;;;;10786640;33;20078;-74
2023/01/06 13:15:15;;;;;;;;;;;12.10;89.00;;;;;;10789730;32;20086;-73
2023/01/06 13:21:20;;;;;;;18.92;9.95;;;12.20;89.00;;;;;;10776113;33;19946;-73
2023/01/06 13:27:31;;;;;;;13.70;7.87;;;12.20;89.00;;;;;;10787776;33;20078;-73
2023/01/06 13:33:49;;;;;;;11.73;6.93;;;12.20;89.10;;;;;;10788140;33;20074;-73
2023/01/06 13:40:01;;;;;;;9.05;5.62;;;12.20;88.90;;;;;;10787795;33;20047;-73
2023/01/06 13:46:07;;;;;;;12.63;7.40;;;12.10;89.00;;;;;;10789055;33;20055;-73
2023/01/06 13:52:30;;;;;;;11.18;7.25;;;12.10;89.00;;;;;;10787542;33;20028;-73
2023/01/06 13:58:32;;;;;;;11.32;6.80;;;12.10;88.90;;;;;;10791275;33;20059;-73
2023/01/06 14:04:38;;;;;;;13.77;7.80;;;12.20;89.00;;;;;;10792059;33;20428;-73
2023/01/06 14:10:45;;;;;;;10.05;5.65;;;12.20;88.80;;;;;;10796399;33;20032;-74
2023/01/06 14:16:49;;;;;;;10.13;5.65;;;12.20;88.90;;;;;;10811356;33;20035;-73
2023/01/06 14:23:27;;;;;;;9.65;5.80;;;12.20;89.00;;;;;;10828182;33;20421;-73
2023/01/06 14:29:41;;;;;;;12.52;6.05;;;12.20;88.90;;;;;;10793587;33;20071;-73
2023/01/06 14:35:46;;;;;;;11.73;5.85;;;12.20;89.00;;;;;;10782006;32;20103;-73
2023/01/06 14:42:18;;;;;;;21.45;15.10;;;12.10;88.90;;;;;;10797669;33;20028;-73
2023/01/06 14:48:24;;;;;;;9.52;6.57;;;12.10;89.00;;;;;;10815545;32;20032;-73
2023/01/06 14:54:33;;;;;;;22.17;12.68;;;12.00;89.00;;;;;;10794988;32;20102;-73
2023/01/06 15:00:35;;;;;;;32.63;20.33;;;11.80;88.10;;;;;;10806711;32;20055;-74
2023/01/06 15:06:38;;;;;;;19.58;14.38;;;11.70;88.20;;;;;;10811509;32;20206;-74
2023/01/06 15:12:42;;;;;;;17.25;12.10;;;11.70;88.30;;;;;;10809952;32;20044;-74
2023/01/06 15:18:46;;;;;;;17.70;11.07;;;11.60;88.40;;;;;;10796237;32;20397;-73
2023/01/06 15:25:21;;;;;;;22.15;13.45;;;11.70;88.40;;;;;;10787742;33;20032;-74
2023/01/06 15:31:23;;;;;;;19.15;11.27;;;11.60;88.50;;;;;;10799278;33;20060;-74
2023/01/06 15:37:29;;;;;;;19.58;12.40;;;11.70;88.60;;;;;;10807789;33;20055;-73
2023/01/06 15:43:41;;;;;;;14.18;9.88;;;11.70;88.70;;;;;;10790215;33;20406;-73
2023/01/06 15:49:52;;;;;;;21.00;12.63;;;11.70;88.60;;;;;;10789828;32;20099;-74
2023/01/06 15:55:57;;;;;;;21.33;13.57;;;11.70;88.50;;;;;;10801377;33;20349;-73
2023/01/06 16:02:00;;;;;;;12.23;7.70;;;11.50;88.40;;;;;;10775292;33;20126;-74
2023/01/06 16:08:05;;;;;;;19.20;10.45;;;11.60;88.60;;;;;;10811795;33;20036;-73
2023/01/06 16:14:24;;;;;;;26.62;14.57;;;11.50;88.60;;;;;;10787368;33;20035;-74
2023/01/06 16:20:27;;;;;;;17.23;10.38;;;11.70;88.60;;;;;;10788186;27;20102;-73
2023/01/06 16:26:39;;;;;;;17.08;11.40;;;11.70;88.40;;;;;;10815164;32;20113;-74
2023/01/06 16:32:42;;;;;;;22.87;10.38;;;11.60;88.30;;;;;;10801391;32;20138;-74
2023/01/06 16:38:44;;;;;;;17.58;10.52;;;11.50;88.30;;;;;;10820818;33;20051;-74
2023/01/06 16:45:53;;;;;;;17.70;8.95;;;11.50;88.60;;;;;;10792132;33;20032;-74
2023/01/06 16:51:55;;;;;;;23.65;15.60;;;11.60;88.40;;;;;;10631561;33;20084;-74
2023/01/06 16:57:59;;;;;;;24.90;14.90;;;11.50;88.00;;;;;;10635058;33;20104;-74
2023/01/06 17:04:02;;;;;;;27.00;16.65;;;11.30;88.00;;;;;;10645821;33;20056;-73
2023/01/06 17:10:12;;;;;;;30.10;19.17;;;11.20;87.80;;;;;;10606305;33;20460;-74
2023/01/06 17:16:16;;;;;;;19.80;13.00;;;11.20;87.60;;;;;;10621861;33;20069;-74
2023/01/06 17:22:26;;;;;;;23.15;13.43;;;11.20;87.90;;;;;;10634658;33;20420;-74
2023/01/06 17:28:30;;;;;;;21.42;12.93;;;11.30;87.90;;;;;;10778579;33;20028;-74
2023/01/06 17:34:36;;;;;;;19.23;11.55;;;11.30;88.00;;;;;;10793083;33;20024;-74
2023/01/06 17:40:38;;;;;;;29.10;18.83;;;11.20;87.70;;;;;;10792740;33;20354;-74
2023/01/06 17:46:40;;;;;;;22.95;14.77;;;11.20;87.70;;;;;;10792867;33;20043;-73
2023/01/06 17:52:42;;;;;;;20.73;15.65;;;11.10;87.80;;;;;;10792450;33;20028;-73
2023/01/06 17:58:45;;;;;;;21.95;14.77;;;11.10;87.80;;;;;;10790423;33;20059;-74
2023/01/06 18:04:47;;;;;;;35.00;25.35;;;11.20;88.00;;;;;;10778650;33;20063;-73
2023/01/06 18:10:52;;;;;;;17.12;12.32;;;11.20;87.70;;;;;;10791737;33;20032;-74
2023/01/06 18:16:58;;;;;;;23.98;13.60;;;11.20;87.90;;;;;;10787511;33;20385;-73
2023/01/06 18:23:00;;;;;;;21.02;13.88;;;11.40;88.00;;;;;;10789809;33;20047;-74
2023/01/06 18:29:14;;;;;;;17.10;9.30;;;11.40;87.90;;;;;;10790901;33;20029;-74
2023/01/06 18:35:23;;;;;;;32.65;24.58;;;11.30;87.90;;;;;;10791436;33;20012;-73
2023/01/06 18:41:25;;;;;;;35.13;18.08;;;11.20;87.60;;;;;;10790539;33;20024;-73
2023/01/06 18:47:30;;;;;;;24.95;15.57;;;11.10;87.50;;;;;;10791058;33;20055;-73
2023/01/06 18:53:48;;;;;;;22.25;13.88;;;11.10;87.70;;;;;;10791091;33;20335;-73
2023/01/06 18:59:50;;;;;;;28.80;18.37;;;11.20;87.90;;;;;;10777885;33;20020;-73
2023/01/06 19:05:58;;;;;;;34.88;22.27;;;11.20;87.50;;;;;;10777562;33;20021;-73
2023/01/06 19:12:00;;;;;;;26.27;18.92;;;11.10;87.30;;;;;;10776793;33;20031;-73
2023/01/06 19:18:04;;;;;;;27.02;18.35;;;11.10;87.50;;;;;;10826779;33;20054;-73
2023/01/06 19:24:25;;;;;;;22.95;16.25;;;11.20;87.70;;;;;;10826708;33;20051;-73
2023/01/06 19:30:41;;;;;;;26.58;15.27;;;11.10;87.50;;;;;;10826726;33;20024;-73
2023/01/06 19:36:46;;;;;;;23.60;14.82;;;11.10;87.50;;;;;;10826605;33;20019;-73
2023/01/06 19:42:49;;;;;;;20.30;13.68;;;11.00;87.50;;;;;;10813012;33;20343;-73
2023/01/06 19:48:54;;;;;;;18.12;11.40;;;11.10;87.70;;;;;;10826100;33;20020;-73
2023/01/06 19:55:17;;;;;;;18.73;12.55;;;11.20;87.70;;;;;;10825486;32;20024;-73
2023/01/06 20:01:20;;;;;;;17.15;11.02;;;11.10;87.70;;;;;;10788876;33;20135;-73
2023/01/06 20:07:22;;;;;;;17.00;9.85;;;11.10;87.80;;;;;;10788777;33;20025;-73
2023/01/06 20:13:24;;;;;;;22.20;14.45;;;11.10;87.80;;;;;;10788742;33;20051;-73
2023/01/06 20:19:26;;;;;;;22.83;16.50;;;11.00;87.70;;;;;;10788498;33;20017;-73
2023/01/06 20:25:28;;;;;;;18.02;13.80;;;11.10;87.90;;;;;;10788406;33;20038;-73
2023/01/06 20:31:31;;;;;;;16.58;12.20;;;11.10;87.90;;;;;;10787826;32;20074;-73
2023/01/06 20:37:33;;;;;;;27.75;15.68;;;11.20;87.90;;;;;;10784489;33;20055;-73
2023/01/06 20:43:35;;;;;;;21.48;14.98;;;11.20;87.90;;;;;;10787900;33;20047;-73
2023/01/06 20:49:38;;;;;;;17.85;11.95;;;11.30;88.00;;;;;;10787867;33;20037;-73
2023/01/06 20:55:40;;;;;;;14.02;10.15;;;11.40;87.90;;;;;;10787706;33;20025;-74
2023/01/06 21:01:42;;;;;;;14.40;10.38;;;11.20;87.90;;;;;;10787494;33;20020;-73
2023/01/06 21:07:44;;;;;;;16.52;11.27;;;11.20;88.10;;;;;;10793147;33;20437;-73
2023/01/06 21:13:46;;;;;;;22.08;12.37;;;11.10;88.10;;;;;;10793835;33;20028;-73
2023/01/06 21:19:48;;;;;;;23.12;17.15;;;11.00;88.10;;;;;;10794291;33;20043;-73
2023/01/06 21:25:50;;;;;;;18.33;12.70;;;11.00;88.10;;;;;;10827813;33;20055;-73
2023/01/06 21:31:52;;;;;;;21.27;12.35;;;10.90;88.00;;;;;;10802937;33;20032;-73
2023/01/06 21:37:54;;;;;;;18.95;13.02;;;10.90;87.90;;;;;;10814540;33;20055;-73
2023/01/06 21:43:57;;;;;;;20.27;12.57;;;10.80;87.90;;;;;;10827747;33;20032;-73
2023/01/06 21:49:59;;;;;;;18.40;12.50;;;10.80;87.90;;;;;;10816016;33;20062;-74
2023/01/06 21:56:01;;;;;;;19.02;10.63;;;10.90;87.90;;;;;;10816344;33;20059;-73
2023/01/06 22:02:04;;;;;;;10.73;8.23;;;10.90;88.00;;;;;;10829333;33;20024;-73
2023/01/06 22:08:07;;;;;;;15.50;9.43;;;10.90;88.00;;;;;;10829007;33;20070;-73
2023/01/06 22:14:10;;;;;;;19.37;12.82;;;10.90;87.90;;;;;;10815279;32;20032;-73
2023/01/06 22:20:12;;;;;;;30.65;12.20;;;10.80;87.90;;;;;;10824719;32;20051;-73
2023/01/06 22:26:14;;;;;;;17.50;11.10;;;10.80;87.80;;;;;;10828643;33;20480;-73
2023/01/06 22:32:16;;;;;;;20.62;10.63;;;10.80;87.90;;;;;;10828515;33;20428;-73
2023/01/06 22:38:18;;;;;;;19.33;12.48;;;10.80;87.90;;;;;;10815826;33;20342;-73
2023/01/06 22:44:20;;;;;;;17.92;10.63;;;10.90;88.00;;;;;;10828105;33;20024;-74
2023/01/06 22:50:22;;;;;;;13.38;9.52;;;11.00;88.00;;;;;;10827833;33;20042;-73
2023/01/06 22:56:24;;;;;;;15.50;9.95;;;11.00;88.10;;;;;;10825714;33;20059;-73
2023/01/06 23:02:26;;;;;;;16.50;10.38;;;11.00;88.00;;;;;;10811446;33;20315;-73
2023/01/06 23:08:31;;;;;;;12.73;8.52;;;11.00;88.00;;;;;;10827354;33;20016;-73
2023/01/06 23:14:33;;;;;;;15.65;10.35;;;11.00;88.10;;;;;;10813696;33;20028;-73
2023/01/06 23:20:35;;;;;;;13.30;10.18;;;10.90;88.10;;;;;;10826946;32;20047;-73
2023/01/06 23:26:43;;;;;;;16.92;10.70;;;10.80;88.10;;;;;;10826528;32;20034;-73
2023/01/06 23:32:45;;;;;;;26.65;16.67;;;10.70;88.10;;;;;;10826625;33;20086;-73
2023/01/06 23:38:47;;;;;;;34.35;20.85;;;10.70;87.40;;;;;;10826601;33;20046;-74
2023/01/06 23:44:49;;;;;;;31.50;22.70;;;10.60;87.20;;;;;;10826459;33;20020;-73
2023/01/06 23:50:52;;;;;;;20.85;15.00;;;10.50;87.00;;;;;;10812408;33;20031;-73
2023/01/06 23:56:54;;;;;;;28.27;18.27;;;10.50;86.60;;;;;;10826022;33;20025;-73
